LFBP/PUF METAR and TAF weather

Enter ICAO airport designator
Station Type Date Time Source
LFBP METAR 2020/04/04 21:00 UTC NOAA

LFBP 042100Z AUTO 10006KT CAVOK 14/05 Q1015 NOSIG


Station Type Date Time Source
LFBP Decoded METAR 2020/04/04 21:00 UTC NOAA

Pau, France (LFBP) 43-23N 000-25W 185M
Apr 04, 2020 - 05:00 PM EDT / 2020.04.04 2100 UTC
Wind: from the E (100 degrees) at 7 MPH (6 KT):0
Visibility: greater than 7 mile(s):0
Temperature: 57 F (14 C)
Dew Point: 41 F (5 C)
Relative Humidity: 54%
Pressure (altimeter): 29.97 in. Hg (1015 hPa)
ob: LFBP 042100Z AUTO 10006KT CAVOK 14/05 Q1015 NOSIG
cycle: 21

Station Type Date Time Source
LFBP TAF 2020/04/04 18:25 UTC NOAA

TAF LFBP 041700Z 0418/0518 09007KT CAVOK PROB30
TEMPO 0502/0506 VRB02KT 3000 BR

Example: see airport list